Terminal Aerodrome Forecast
Issued by NWS Shreveport, LA

Home | Current Version | Previous Version | Text Only | Print | Product List | Glossary On
Versions: 1 2 3 4 5 6 7 8 9 10 11 12 13 14 15 16 17 18 19 20 21
731
FTUS44 KSHV 212040 AAD
TAFTYR
TAF AMD
KTYR 212040Z 2121/2218 21010KT P6SM OVC050
      TEMPO 2201/2204 5SM -TSRA BR BKN045CB OVC120
     FM220400 19008KT P6SM VCTS BKN045CB OVC080
     FM220600 21011KT P6SM SCT035 BKN120
     FM221500 28012KT P6SM BKN120=

USA.gov is the U.S. government's official web portal to all federal, state and local government web resources and services.